sensor_id;sensor_type;location;lat;lon;timestamp;pressure;altitude;pressure_sealevel;temperature;humidity
15884;BME280;8040;50.254;10.960;2022-12-08T00:00:50;97662.81;;;5.52;76.16
15884;BME280;8040;50.254;10.960;2022-12-08T00:03:15;97659.84;;;5.53;75.69
15884;BME280;8040;50.254;10.960;2022-12-08T00:05:45;97665.97;;;5.59;74.95
15884;BME280;8040;50.254;10.960;2022-12-08T00:08:29;97650.22;;;5.47;75.74
15884;BME280;8040;50.254;10.960;2022-12-08T00:11:14;97670.03;;;5.56;75.28
15884;BME280;8040;50.254;10.960;2022-12-08T00:13:40;97649.66;;;5.45;75.11
15884;BME280;8040;50.254;10.960;2022-12-08T00:16:07;97657.66;;;5.55;76.14
15884;BME280;8040;50.254;10.960;2022-12-08T00:18:32;97651.81;;;5.48;76.68
15884;BME280;8040;50.254;10.960;2022-12-08T00:20:58;97658.72;;;5.59;75.67
15884;BME280;8040;50.254;10.960;2022-12-08T00:23:23;97650.41;;;5.56;76.04
15884;BME280;8040;50.254;10.960;2022-12-08T00:25:49;97639.09;;;5.54;76.51
15884;BME280;8040;50.254;10.960;2022-12-08T00:28:14;97626.28;;;5.46;76.35
15884;BME280;8040;50.254;10.960;2022-12-08T00:30:40;97644.72;;;5.57;76.50
15884;BME280;8040;50.254;10.960;2022-12-08T00:33:06;97634.81;;;5.53;76.66
15884;BME280;8040;50.254;10.960;2022-12-08T00:35:31;97633.47;;;5.55;76.01
15884;BME280;8040;50.254;10.960;2022-12-08T00:37:56;97632.94;;;5.53;76.47
15884;BME280;8040;50.254;10.960;2022-12-08T00:40:22;97640.63;;;5.65;76.71
15884;BME280;8040;50.254;10.960;2022-12-08T00:42:47;97623.28;;;5.52;76.59
15884;BME280;8040;50.254;10.960;2022-12-08T00:45:12;97626.31;;;5.41;75.85
15884;BME280;8040;50.254;10.960;2022-12-08T00:47:38;97621.47;;;5.43;75.72
15884;BME280;8040;50.254;10.960;2022-12-08T00:50:03;97608.31;;;5.41;76.00
15884;BME280;8040;50.254;10.960;2022-12-08T00:52:29;97621.66;;;5.51;75.87
15884;BME280;8040;50.254;10.960;2022-12-08T00:54:54;97613.66;;;5.46;75.38
15884;BME280;8040;50.254;10.960;2022-12-08T00:57:20;97616.56;;;5.50;75.99
15884;BME280;8040;50.254;10.960;2022-12-08T00:59:45;97602.94;;;5.41;75.99
15884;BME280;8040;50.254;10.960;2022-12-08T01:02:10;97622.00;;;5.45;75.56
15884;BME280;8040;50.254;10.960;2022-12-08T01:04:35;97629.47;;;5.48;75.95
15884;BME280;8040;50.254;10.960;2022-12-08T01:07:02;97627.56;;;5.53;76.06
15884;BME280;8040;50.254;10.960;2022-12-08T01:09:27;97628.91;;;5.56;76.05
15884;BME280;8040;50.254;10.960;2022-12-08T01:11:52;97626.75;;;5.53;75.77
15884;BME280;8040;50.254;10.960;2022-12-08T01:14:18;97626.19;;;5.56;76.15
15884;BME280;8040;50.254;10.960;2022-12-08T01:16:43;97616.53;;;5.55;76.07
15884;BME280;8040;50.254;10.960;2022-12-08T01:19:11;97627.81;;;5.57;76.65
15884;BME280;8040;50.254;10.960;2022-12-08T01:21:37;97620.00;;;5.55;76.50
15884;BME280;8040;50.254;10.960;2022-12-08T01:24:02;97629.59;;;5.66;76.85
15884;BME280;8040;50.254;10.960;2022-12-08T01:26:28;97616.00;;;5.53;76.24
15884;BME280;8040;50.254;10.960;2022-12-08T01:28:53;97613.03;;;5.54;76.57
15884;BME280;8040;50.254;10.960;2022-12-08T01:31:20;97623.94;;;5.68;76.38
15884;BME280;8040;50.254;10.960;2022-12-08T01:33:46;97613.78;;;5.60;76.52
15884;BME280;8040;50.254;10.960;2022-12-08T01:36:23;97629.63;;;5.61;75.90
15884;BME280;8040;50.254;10.960;2022-12-08T01:38:50;97610.72;;;5.43;75.62
15884;BME280;8040;50.254;10.960;2022-12-08T01:41:18;97609.66;;;5.39;76.20
15884;BME280;8040;50.254;10.960;2022-12-08T01:43:56;97605.88;;;5.40;76.76
15884;BME280;8040;50.254;10.960;2022-12-08T01:46:22;97613.66;;;5.46;76.86
15884;BME280;8040;50.254;10.960;2022-12-08T01:48:50;97620.81;;;5.56;77.11
15884;BME280;8040;50.254;10.960;2022-12-08T01:51:18;97609.88;;;5.47;76.16
15884;BME280;8040;50.254;10.960;2022-12-08T01:53:44;97612.66;;;5.32;75.92
15884;BME280;8040;50.254;10.960;2022-12-08T01:56:14;97611.59;;;5.33;77.22
15884;BME280;8040;50.254;10.960;2022-12-08T01:58:47;97603.44;;;5.43;76.20
15884;BME280;8040;50.254;10.960;2022-12-08T02:01:14;97610.06;;;5.56;76.77
15884;BME280;8040;50.254;10.960;2022-12-08T02:03:44;97607.19;;;5.47;76.41
15884;BME280;8040;50.254;10.960;2022-12-08T02:06:11;97588.97;;;5.39;76.36
15884;BME280;8040;50.254;10.960;2022-12-08T02:08:39;97595.81;;;5.22;76.31
15884;BME280;8040;50.254;10.960;2022-12-08T02:11:09;97604.91;;;5.31;77.27
15884;BME280;8040;50.254;10.960;2022-12-08T02:13:35;97600.28;;;5.36;77.12
15884;BME280;8040;50.254;10.960;2022-12-08T02:21:58;97603.94;;;5.45;76.85
15884;BME280;8040;50.254;10.960;2022-12-08T02:30:18;97580.94;;;5.34;77.82
15884;BME280;8040;50.254;10.960;2022-12-08T02:33:14;97569.88;;;5.36;77.41
15884;BME280;8040;50.254;10.960;2022-12-08T02:38:36;97591.50;;;5.54;77.21
15884;BME280;8040;50.254;10.960;2022-12-08T02:41:35;97586.75;;;5.46;76.46
15884;BME280;8040;50.254;10.960;2022-12-08T02:44:19;97571.75;;;5.40;77.48
15884;BME280;8040;50.254;10.960;2022-12-08T02:46:56;97576.22;;;5.50;77.57
15884;BME280;8040;50.254;10.960;2022-12-08T02:49:31;97566.19;;;5.32;76.62
15884;BME280;8040;50.254;10.960;2022-12-08T02:54:39;97557.03;;;5.33;76.64
15884;BME280;8040;50.254;10.960;2022-12-08T03:05:12;97565.78;;;5.43;77.19
15884;BME280;8040;50.254;10.960;2022-12-08T03:10:23;97546.00;;;5.34;77.18
15884;BME280;8040;50.254;10.960;2022-12-08T03:12:55;97544.19;;;5.25;76.67
15884;BME280;8040;50.254;10.960;2022-12-08T03:15:23;97562.91;;;5.35;76.92
15884;BME280;8040;50.254;10.960;2022-12-08T03:17:52;97550.81;;;5.32;76.80
15884;BME280;8040;50.254;10.960;2022-12-08T03:20:24;97557.31;;;5.26;76.66
15884;BME280;8040;50.254;10.960;2022-12-08T03:22:52;97554.31;;;5.33;77.42
15884;BME280;8040;50.254;10.960;2022-12-08T03:25:24;97538.75;;;5.30;77.67
15884;BME280;8040;50.254;10.960;2022-12-08T03:27:50;97533.63;;;5.33;77.90
15884;BME280;8040;50.254;10.960;2022-12-08T03:30:16;97522.09;;;5.28;77.31
15884;BME280;8040;50.254;10.960;2022-12-08T03:32:47;97540.56;;;5.39;76.41
15884;BME280;8040;50.254;10.960;2022-12-08T03:35:23;97547.78;;;5.44;77.17
15884;BME280;8040;50.254;10.960;2022-12-08T03:37:50;97525.03;;;5.31;76.77
15884;BME280;8040;50.254;10.960;2022-12-08T03:40:17;97540.97;;;5.51;76.81
15884;BME280;8040;50.254;10.960;2022-12-08T03:42:43;97542.63;;;5.47;76.44
15884;BME280;8040;50.254;10.960;2022-12-08T03:45:09;97531.41;;;5.40;76.55
15884;BME280;8040;50.254;10.960;2022-12-08T03:47:35;97528.13;;;5.43;77.45
15884;BME280;8040;50.254;10.960;2022-12-08T03:50:01;97537.03;;;5.44;77.50
15884;BME280;8040;50.254;10.960;2022-12-08T03:52:26;97523.47;;;5.25;76.82
15884;BME280;8040;50.254;10.960;2022-12-08T03:54:51;97526.06;;;5.35;76.79
15884;BME280;8040;50.254;10.960;2022-12-08T03:57:17;97518.00;;;5.35;76.87
15884;BME280;8040;50.254;10.960;2022-12-08T03:59:42;97517.53;;;5.28;76.60
15884;BME280;8040;50.254;10.960;2022-12-08T04:02:07;97529.31;;;5.32;76.78
15884;BME280;8040;50.254;10.960;2022-12-08T04:04:33;97521.47;;;5.36;77.52
15884;BME280;8040;50.254;10.960;2022-12-08T04:06:58;97529.31;;;5.32;76.54
15884;BME280;8040;50.254;10.960;2022-12-08T04:09:24;97521.84;;;5.29;76.54
15884;BME280;8040;50.254;10.960;2022-12-08T04:11:49;97524.75;;;5.33;76.28
15884;BME280;8040;50.254;10.960;2022-12-08T04:14:14;97519.38;;;5.33;76.60
15884;BME280;8040;50.254;10.960;2022-12-08T04:16:40;97514.91;;;5.23;76.58
15884;BME280;8040;50.254;10.960;2022-12-08T04:19:05;97527.16;;;5.34;76.68
15884;BME280;8040;50.254;10.960;2022-12-08T04:21:31;97517.53;;;5.28;75.96
15884;BME280;8040;50.254;10.960;2022-12-08T04:23:56;97506.31;;;5.21;76.25
15884;BME280;8040;50.254;10.960;2022-12-08T04:26:22;97512.13;;;5.33;76.75
15884;BME280;8040;50.254;10.960;2022-12-08T04:28:47;97508.38;;;5.29;76.10
15884;BME280;8040;50.254;10.960;2022-12-08T04:31:13;97496.03;;;5.28;76.52
15884;BME280;8040;50.254;10.960;2022-12-08T04:33:38;97506.66;;;5.38;76.52
15884;BME280;8040;50.254;10.960;2022-12-08T04:36:05;97504.06;;;5.33;75.76
15884;BME280;8040;50.254;10.960;2022-12-08T04:38:31;97495.38;;;5.13;76.00
15884;BME280;8040;50.254;10.960;2022-12-08T04:40:56;97503.91;;;5.20;76.19
15884;BME280;8040;50.254;10.960;2022-12-08T04:43:21;97486.50;;;5.12;76.17
15884;BME280;8040;50.254;10.960;2022-12-08T04:45:47;97494.25;;;5.19;76.51
15884;BME280;8040;50.254;10.960;2022-12-08T04:48:13;97506.06;;;5.18;76.14
15884;BME280;8040;50.254;10.960;2022-12-08T04:50:40;97496.63;;;5.20;77.37
15884;BME280;8040;50.254;10.960;2022-12-08T04:53:08;97502.53;;;5.22;76.33
15884;BME280;8040;50.254;10.960;2022-12-08T04:55:37;97499.50;;;5.29;77.33
15884;BME280;8040;50.254;10.960;2022-12-08T04:58:03;97473.09;;;5.07;76.46
15884;BME280;8040;50.254;10.960;2022-12-08T05:00:28;97484.88;;;5.16;76.54
15884;BME280;8040;50.254;10.960;2022-12-08T05:02:54;97507.06;;;5.27;76.61
15884;BME280;8040;50.254;10.960;2022-12-08T05:05:19;97493.94;;;5.20;76.55
15884;BME280;8040;50.254;10.960;2022-12-08T05:07:44;97485.84;;;5.25;77.45
15884;BME280;8040;50.254;10.960;2022-12-08T05:10:10;97485.09;;;5.20;76.84
15884;BME280;8040;50.254;10.960;2022-12-08T05:12:35;97482.25;;;5.06;76.57
15884;BME280;8040;50.254;10.960;2022-12-08T05:15:00;97495.31;;;5.18;76.98
15884;BME280;8040;50.254;10.960;2022-12-08T05:17:26;97509.91;;;5.12;76.76
15884;BME280;8040;50.254;10.960;2022-12-08T05:19:51;97507.22;;;5.12;76.59
15884;BME280;8040;50.254;10.960;2022-12-08T05:22:16;97504.81;;;5.10;77.04
15884;BME280;8040;50.254;10.960;2022-12-08T05:24:42;97486.03;;;5.05;76.81
15884;BME280;8040;50.254;10.960;2022-12-08T05:27:08;97479.06;;;5.04;77.10
15884;BME280;8040;50.254;10.960;2022-12-08T05:29:34;97495.56;;;5.21;77.43
15884;BME280;8040;50.254;10.960;2022-12-08T05:31:59;97473.41;;;5.06;76.95
15884;BME280;8040;50.254;10.960;2022-12-08T05:34:25;97484.91;;;5.11;76.96
15884;BME280;8040;50.254;10.960;2022-12-08T05:36:50;97491.88;;;5.12;76.66
15884;BME280;8040;50.254;10.960;2022-12-08T05:39:15;97477.94;;;5.10;76.45
15884;BME280;8040;50.254;10.960;2022-12-08T05:41:41;97482.53;;;5.05;76.52
15884;BME280;8040;50.254;10.960;2022-12-08T05:44:06;97475.84;;;5.02;76.65
15884;BME280;8040;50.254;10.960;2022-12-08T05:46:32;97468.34;;;4.99;76.93
15884;BME280;8040;50.254;10.960;2022-12-08T05:48:59;97478.94;;;5.14;77.56
15884;BME280;8040;50.254;10.960;2022-12-08T05:51:24;97475.75;;;5.12;77.21
15884;BME280;8040;50.254;10.960;2022-12-08T05:53:51;97486.97;;;5.19;77.14
15884;BME280;8040;50.254;10.960;2022-12-08T05:56:17;97484.25;;;5.24;77.18
15884;BME280;8040;50.254;10.960;2022-12-08T05:58:43;97468.19;;;5.14;77.21
15884;BME280;8040;50.254;10.960;2022-12-08T06:01:22;97466.81;;;5.17;77.04
15884;BME280;8040;50.254;10.960;2022-12-08T06:03:49;97470.78;;;5.24;77.17
15884;BME280;8040;50.254;10.960;2022-12-08T06:06:15;97486.94;;;5.24;76.82
15884;BME280;8040;50.254;10.960;2022-12-08T06:08:40;97463.41;;;5.11;76.52
15884;BME280;8040;50.254;10.960;2022-12-08T06:11:05;97474.63;;;5.18;76.72
15884;BME280;8040;50.254;10.960;2022-12-08T06:13:31;97480.34;;;5.12;76.03
15884;BME280;8040;50.254;10.960;2022-12-08T06:16:03;97472.81;;;5.09;76.06
15884;BME280;8040;50.254;10.960;2022-12-08T06:18:28;97482.91;;;5.22;76.70
15884;BME280;8040;50.254;10.960;2022-12-08T06:21:07;97472.34;;;5.30;76.66
15884;BME280;8040;50.254;10.960;2022-12-08T06:23:33;97480.47;;;5.25;76.46
15884;BME280;8040;50.254;10.960;2022-12-08T06:26:04;97488.75;;;5.29;76.44
15884;BME280;8040;50.254;10.960;2022-12-08T06:28:30;97494.44;;;5.27;75.91
15884;BME280;8040;50.254;10.960;2022-12-08T06:30:57;97490.88;;;5.32;76.29
15884;BME280;8040;50.254;10.960;2022-12-08T06:33:23;97476.59;;;5.36;76.23
15884;BME280;8040;50.254;10.960;2022-12-08T06:35:50;97487.13;;;5.33;75.83
15884;BME280;8040;50.254;10.960;2022-12-08T06:38:15;97470.75;;;5.29;76.18
15884;BME280;8040;50.254;10.960;2022-12-08T06:40:41;97470.16;;;5.32;76.13
15884;BME280;8040;50.254;10.960;2022-12-08T06:43:06;97481.00;;;5.51;75.87
15884;BME280;8040;50.254;10.960;2022-12-08T06:45:31;97474.09;;;5.45;75.62
15884;BME280;8040;50.254;10.960;2022-12-08T06:47:57;97478.72;;;5.39;74.98
15884;BME280;8040;50.254;10.960;2022-12-08T06:50:22;97480.09;;;5.37;75.12
15884;BME280;8040;50.254;10.960;2022-12-08T06:52:48;97476.53;;;5.41;75.51
15884;BME280;8040;50.254;10.960;2022-12-08T06:55:13;97470.06;;;5.42;75.59
15884;BME280;8040;50.254;10.960;2022-12-08T06:57:39;97480.03;;;5.65;76.82
15884;BME280;8040;50.254;10.960;2022-12-08T07:00:06;97479.53;;;5.87;77.91
15884;BME280;8040;50.254;10.960;2022-12-08T07:02:31;97458.91;;;5.77;75.88
15884;BME280;8040;50.254;10.960;2022-12-08T07:04:57;97489.50;;;5.86;74.14
15884;BME280;8040;50.254;10.960;2022-12-08T07:07:22;97486.75;;;5.68;73.20
15884;BME280;8040;50.254;10.960;2022-12-08T07:09:48;97465.78;;;5.41;73.50
15884;BME280;8040;50.254;10.960;2022-12-08T07:12:13;97489.88;;;5.51;73.92
15884;BME280;8040;50.254;10.960;2022-12-08T07:14:40;97484.22;;;5.53;74.87
15884;BME280;8040;50.254;10.960;2022-12-08T07:17:05;97485.53;;;5.55;73.95
15884;BME280;8040;50.254;10.960;2022-12-08T07:19:31;97473.00;;;5.46;74.12
15884;BME280;8040;50.254;10.960;2022-12-08T07:21:57;97493.69;;;5.45;74.51
15884;BME280;8040;50.254;10.960;2022-12-08T07:24:22;97490.53;;;5.38;74.48
15884;BME280;8040;50.254;10.960;2022-12-08T07:26:48;97481.06;;;5.46;74.98
15884;BME280;8040;50.254;10.960;2022-12-08T07:29:13;97478.28;;;5.56;74.92
15884;BME280;8040;50.254;10.960;2022-12-08T07:31:39;97478.19;;;5.37;74.14
15884;BME280;8040;50.254;10.960;2022-12-08T07:34:04;97482.59;;;5.28;73.81
15884;BME280;8040;50.254;10.960;2022-12-08T07:36:29;97493.84;;;5.30;74.46
15884;BME280;8040;50.254;10.960;2022-12-08T07:38:56;97494.31;;;5.37;74.51
15884;BME280;8040;50.254;10.960;2022-12-08T07:41:23;97466.00;;;5.21;74.68
15884;BME280;8040;50.254;10.960;2022-12-08T07:43:49;97484.59;;;5.41;74.84
15884;BME280;8040;50.254;10.960;2022-12-08T07:46:17;97478.19;;;5.37;75.21
15884;BME280;8040;50.254;10.960;2022-12-08T07:48:44;97468.00;;;5.34;75.29
15884;BME280;8040;50.254;10.960;2022-12-08T07:51:11;97455.72;;;5.28;74.41
15884;BME280;8040;50.254;10.960;2022-12-08T07:53:42;97479.47;;;5.45;75.07
15884;BME280;8040;50.254;10.960;2022-12-08T07:56:09;97461.28;;;5.37;74.69
15884;BME280;8040;50.254;10.960;2022-12-08T07:58:35;97477.03;;;5.43;74.26
15884;BME280;8040;50.254;10.960;2022-12-08T08:01:00;97454.25;;;5.36;74.83
15884;BME280;8040;50.254;10.960;2022-12-08T08:03:26;97458.59;;;5.37;74.49
15884;BME280;8040;50.254;10.960;2022-12-08T08:05:51;97474.22;;;5.58;74.88
15884;BME280;8040;50.254;10.960;2022-12-08T08:08:17;97464.00;;;5.55;74.18
15884;BME280;8040;50.254;10.960;2022-12-08T08:10:43;97453.13;;;5.42;73.96
15884;BME280;8040;50.254;10.960;2022-12-08T08:13:08;97472.72;;;5.47;73.93
15884;BME280;8040;50.254;10.960;2022-12-08T08:15:34;97479.00;;;5.61;74.52
15884;BME280;8040;50.254;10.960;2022-12-08T08:17:59;97481.19;;;5.59;74.19
15884;BME280;8040;50.254;10.960;2022-12-08T08:20:25;97471.94;;;5.42;73.69
15884;BME280;8040;50.254;10.960;2022-12-08T08:22:50;97469.47;;;5.45;73.79
15884;BME280;8040;50.254;10.960;2022-12-08T08:25:17;97474.22;;;5.58;74.57
15884;BME280;8040;50.254;10.960;2022-12-08T08:27:43;97480.91;;;5.61;75.17
15884;BME280;8040;50.254;10.960;2022-12-08T08:30:11;97473.28;;;5.68;74.66
15884;BME280;8040;50.254;10.960;2022-12-08T08:32:37;97466.06;;;5.63;73.98
15884;BME280;8040;50.254;10.960;2022-12-08T08:35:03;97479.75;;;5.67;73.55
15884;BME280;8040;50.254;10.960;2022-12-08T08:37:29;97468.94;;;5.48;73.55
15884;BME280;8040;50.254;10.960;2022-12-08T08:39:54;97480.28;;;5.69;74.62
15884;BME280;8040;50.254;10.960;2022-12-08T08:42:20;97466.06;;;5.63;74.03
15884;BME280;8040;50.254;10.960;2022-12-08T08:44:46;97486.88;;;5.81;73.81
15884;BME280;8040;50.254;10.960;2022-12-08T08:47:12;97482.78;;;5.84;74.60
15884;BME280;8040;50.254;10.960;2022-12-08T08:49:37;97480.22;;;5.74;74.71
15884;BME280;8040;50.254;10.960;2022-12-08T08:52:03;97478.63;;;5.96;75.77
15884;BME280;8040;50.254;10.960;2022-12-08T08:54:29;97470.94;;;6.08;74.69
15884;BME280;8040;50.254;10.960;2022-12-08T08:56:56;97480.00;;;6.12;73.72
15884;BME280;8040;50.254;10.960;2022-12-08T08:59:22;97457.59;;;5.98;72.89
15884;BME280;8040;50.254;10.960;2022-12-08T09:01:47;97453.25;;;6.02;73.07
15884;BME280;8040;50.254;10.960;2022-12-08T09:04:13;97461.47;;;6.11;73.05
15884;BME280;8040;50.254;10.960;2022-12-08T09:06:38;97478.19;;;6.08;73.16
15884;BME280;8040;50.254;10.960;2022-12-08T09:09:04;97487.81;;;6.14;73.52
15884;BME280;8040;50.254;10.960;2022-12-08T09:11:31;97491.25;;;6.19;72.39
15884;BME280;8040;50.254;10.960;2022-12-08T09:13:56;97476.38;;;6.03;72.70
15884;BME280;8040;50.254;10.960;2022-12-08T09:16:22;97494.06;;;6.09;72.41
15884;BME280;8040;50.254;10.960;2022-12-08T09:18:48;97479.88;;;6.04;72.43
15884;BME280;8040;50.254;10.960;2022-12-08T09:21:16;97490.66;;;6.04;72.40
15884;BME280;8040;50.254;10.960;2022-12-08T09:23:44;97482.34;;;6.00;72.46
15884;BME280;8040;50.254;10.960;2022-12-08T09:26:10;97490.34;;;6.05;72.71
15884;BME280;8040;50.254;10.960;2022-12-08T09:28:36;97473.78;;;5.93;73.05
15884;BME280;8040;50.254;10.960;2022-12-08T09:31:06;97476.81;;;6.10;73.18
15884;BME280;8040;50.254;10.960;2022-12-08T09:33:33;97470.94;;;6.08;72.97
15884;BME280;8040;50.254;10.960;2022-12-08T09:36:03;97477.31;;;6.12;73.02
15884;BME280;8040;50.254;10.960;2022-12-08T09:38:28;97477.19;;;6.04;72.85
15884;BME280;8040;50.254;10.960;2022-12-08T09:40:54;97470.56;;;6.15;73.32
15884;BME280;8040;50.254;10.960;2022-12-08T09:46:10;97476.47;;;6.35;72.56
15884;BME280;8040;50.254;10.960;2022-12-08T09:48:52;97468.97;;;6.32;71.97
15884;BME280;8040;50.254;10.960;2022-12-08T09:51:40;97454.56;;;6.23;72.04
15884;BME280;8040;50.254;10.960;2022-12-08T09:54:19;97462.44;;;6.38;72.21
15884;BME280;8040;50.254;10.960;2022-12-08T09:56:47;97467.00;;;6.38;71.53
15884;BME280;8040;50.254;10.960;2022-12-08T09:59:29;97470.94;;;6.45;71.65
15884;BME280;8040;50.254;10.960;2022-12-08T10:01:55;97464.84;;;6.40;71.78
15884;BME280;8040;50.254;10.960;2022-12-08T10:04:35;97474.50;;;6.41;71.92
15884;BME280;8040;50.254;10.960;2022-12-08T10:07:17;97458.56;;;6.26;71.42
15884;BME280;8040;50.254;10.960;2022-12-08T10:10:13;97474.50;;;6.22;71.14
15884;BME280;8040;50.254;10.960;2022-12-08T10:13:28;97467.28;;;6.36;72.58
15884;BME280;8040;50.254;10.960;2022-12-08T10:18:18;97440.88;;;6.20;71.88
15884;BME280;8040;50.254;10.960;2022-12-08T10:20:47;97439.78;;;6.21;71.48
15884;BME280;8040;50.254;10.960;2022-12-08T10:23:29;97445.63;;;6.28;71.12
15884;BME280;8040;50.254;10.960;2022-12-08T10:26:04;97452.44;;;6.39;71.09
15884;BME280;8040;50.254;10.960;2022-12-08T10:28:31;97440.44;;;6.31;71.61
15884;BME280;8040;50.254;10.960;2022-12-08T10:30:57;97454.19;;;6.48;71.86
15884;BME280;8040;50.254;10.960;2022-12-08T10:33:22;97440.53;;;6.26;70.42
15884;BME280;8040;50.254;10.960;2022-12-08T10:35:53;97430.03;;;6.25;70.42
15884;BME280;8040;50.254;10.960;2022-12-08T10:38:23;97438.25;;;6.33;71.18
15884;BME280;8040;50.254;10.960;2022-12-08T10:40:51;97427.78;;;6.32;71.80
15884;BME280;8040;50.254;10.960;2022-12-08T10:43:23;97431.06;;;6.29;71.74
15884;BME280;8040;50.254;10.960;2022-12-08T10:45:50;97421.25;;;6.19;72.04
15884;BME280;8040;50.254;10.960;2022-12-08T10:48:26;97427.06;;;6.26;72.02
15884;BME280;8040;50.254;10.960;2022-12-08T10:50:55;97432.94;;;6.28;71.20
15884;BME280;8040;50.254;10.960;2022-12-08T10:53:24;97424.78;;;6.33;71.74
15884;BME280;8040;50.254;10.960;2022-12-08T10:58:28;97426.31;;;6.39;70.71
15884;BME280;8040;50.254;10.960;2022-12-08T11:01:00;97421.84;;;6.48;71.27
15884;BME280;8040;50.254;10.960;2022-12-08T11:03:29;97416.59;;;6.57;70.93
15884;BME280;8040;50.254;10.960;2022-12-08T11:05:58;97420.81;;;6.63;71.16
15884;BME280;8040;50.254;10.960;2022-12-08T11:08:26;97421.56;;;6.82;71.50
15884;BME280;8040;50.254;10.960;2022-12-08T11:10:52;97400.34;;;6.80;71.06
15884;BME280;8040;50.254;10.960;2022-12-08T11:13:26;97403.94;;;6.89;70.61
15884;BME280;8040;50.254;10.960;2022-12-08T11:15:53;97410.34;;;6.93;69.42
15884;BME280;8040;50.254;10.960;2022-12-08T11:18:43;97395.16;;;6.97;69.43
15884;BME280;8040;50.254;10.960;2022-12-08T11:21:18;97403.78;;;6.99;69.61
15884;BME280;8040;50.254;10.960;2022-12-08T11:23:48;97378.97;;;6.97;70.11
15884;BME280;8040;50.254;10.960;2022-12-08T11:26:30;97394.00;;;7.17;70.01
15884;BME280;8040;50.254;10.960;2022-12-08T11:28:56;97386.41;;;7.05;68.83
15884;BME280;8040;50.254;10.960;2022-12-08T11:31:33;97398.19;;;7.09;68.26
15884;BME280;8040;50.254;10.960;2022-12-08T11:34:01;97378.47;;;6.82;68.22
15884;BME280;8040;50.254;10.960;2022-12-08T11:36:29;97398.13;;;6.82;68.40
15884;BME280;8040;50.254;10.960;2022-12-08T11:39:00;97384.94;;;6.81;68.87
15884;BME280;8040;50.254;10.960;2022-12-08T11:41:32;97384.16;;;6.80;68.57
15884;BME280;8040;50.254;10.960;2022-12-08T11:44:27;97378.59;;;6.58;67.73
15884;BME280;8040;50.254;10.960;2022-12-08T11:47:27;97374.69;;;6.51;68.80
15884;BME280;8040;50.254;10.960;2022-12-08T11:50:28;97381.44;;;6.67;69.63
15884;BME280;8040;50.254;10.960;2022-12-08T11:52:56;97374.78;;;6.78;69.70
15884;BME280;8040;50.254;10.960;2022-12-08T11:55:46;97364.19;;;6.81;69.18
15884;BME280;8040;50.254;10.960;2022-12-08T11:58:24;97372.63;;;6.93;68.79
15884;BME280;8040;50.254;10.960;2022-12-08T12:00:50;97368.41;;;6.87;67.97
15884;BME280;8040;50.254;10.960;2022-12-08T12:03:28;97357.22;;;6.94;67.90
15884;BME280;8040;50.254;10.960;2022-12-08T12:11:28;97364.00;;;6.91;67.95
15884;BME280;8040;50.254;10.960;2022-12-08T12:14:32;97367.13;;;6.98;67.67
15884;BME280;8040;50.254;10.960;2022-12-08T12:19:58;97366.59;;;6.96;67.34
15884;BME280;8040;50.254;10.960;2022-12-08T12:22:31;97355.09;;;6.77;66.48
15884;BME280;8040;50.254;10.960;2022-12-08T12:24:59;97358.59;;;6.78;66.42
15884;BME280;8040;50.254;10.960;2022-12-08T12:27:38;97366.38;;;6.79;66.78
15884;BME280;8040;50.254;10.960;2022-12-08T12:30:07;97358.59;;;6.78;67.43
15884;BME280;8040;50.254;10.960;2022-12-08T12:32:43;97356.91;;;6.82;66.97
15884;BME280;8040;50.254;10.960;2022-12-08T12:35:15;97342.22;;;6.88;67.44
15884;BME280;8040;50.254;10.960;2022-12-08T12:37:44;97324.28;;;6.83;67.56
15884;BME280;8040;50.254;10.960;2022-12-08T12:40:19;97324.66;;;6.90;66.70
15884;BME280;8040;50.254;10.960;2022-12-08T12:45:36;97325.06;;;6.97;66.34
15884;BME280;8040;50.254;10.960;2022-12-08T12:53:03;97337.25;;;7.08;66.56
15884;BME280;8040;50.254;10.960;2022-12-08T13:00:44;97323.47;;;6.96;66.84
15884;BME280;8040;50.254;10.960;2022-12-08T13:03:13;97335.06;;;6.97;66.38
15884;BME280;8040;50.254;10.960;2022-12-08T13:05:50;97334.78;;;6.98;66.61
15884;BME280;8040;50.254;10.960;2022-12-08T13:08:21;97335.06;;;6.97;66.24
15884;BME280;8040;50.254;10.960;2022-12-08T13:11:17;97335.38;;;6.95;66.53
15884;BME280;8040;50.254;10.960;2022-12-08T13:14:00;97316.69;;;6.85;66.14
15884;BME280;8040;50.254;10.960;2022-12-08T13:16:31;97329.06;;;7.00;66.97
15884;BME280;8040;50.254;10.960;2022-12-08T13:18:59;97320.00;;;6.96;66.40
15884;BME280;8040;50.254;10.960;2022-12-08T13:21:33;97302.50;;;6.80;66.29
15884;BME280;8040;50.254;10.960;2022-12-08T13:24:27;97328.97;;;6.91;65.80
15884;BME280;8040;50.254;10.960;2022-12-08T13:29:29;97322.47;;;6.79;66.34
15884;BME280;8040;50.254;10.960;2022-12-08T13:34:56;97329.06;;;6.73;66.60
15884;BME280;8040;50.254;10.960;2022-12-08T13:37:27;97328.16;;;6.77;66.66
15884;BME280;8040;50.254;10.960;2022-12-08T13:40:15;97327.03;;;6.65;66.44
15884;BME280;8040;50.254;10.960;2022-12-08T13:42:48;97306.47;;;6.55;67.44
15884;BME280;8040;50.254;10.960;2022-12-08T13:45:21;97322.44;;;6.65;66.60
15884;BME280;8040;50.254;10.960;2022-12-08T13:48:18;97321.47;;;6.75;67.08
15884;BME280;8040;50.254;10.960;2022-12-08T13:50:52;97310.97;;;6.73;67.42
15884;BME280;8040;50.254;10.960;2022-12-08T13:53:26;97325.75;;;6.76;66.87
15884;BME280;8040;50.254;10.960;2022-12-08T13:55:59;97312.28;;;6.62;66.63
15884;BME280;8040;50.254;10.960;2022-12-08T13:58:31;97324.03;;;6.66;66.07
15884;BME280;8040;50.254;10.960;2022-12-08T14:01:13;97322.97;;;6.67;66.90
15884;BME280;8040;50.254;10.960;2022-12-08T14:03:55;97329.41;;;6.66;66.42
15884;BME280;8040;50.254;10.960;2022-12-08T14:06:39;97326.94;;;6.56;66.19
15884;BME280;8040;50.254;10.960;2022-12-08T14:09:10;97304.72;;;6.46;66.62
15884;BME280;8040;50.254;10.960;2022-12-08T14:11:45;97326.50;;;6.49;65.80
15884;BME280;8040;50.254;10.960;2022-12-08T14:17:02;97327.41;;;6.58;66.58
15884;BME280;8040;50.254;10.960;2022-12-08T14:19:30;97325.81;;;6.57;65.70
15884;BME280;8040;50.254;10.960;2022-12-08T14:24:36;97321.22;;;6.58;66.00
15884;BME280;8040;50.254;10.960;2022-12-08T14:27:03;97329.53;;;6.61;65.90
15884;BME280;8040;50.254;10.960;2022-12-08T14:29:32;97330.81;;;6.64;66.37